sensor_id;sensor_type;location;lat;lon;timestamp;P1;durP1;ratioP1;P2;durP2;ratioP2
63818;SDS011;49970;54.976;73.248;2023-05-07T00:01:12;75.45;;;25.13;;
63818;SDS011;49970;54.976;73.248;2023-05-07T00:03:38;81.72;;;24.65;;
63818;SDS011;49970;54.976;73.248;2023-05-07T00:06:05;81.63;;;24.15;;
63818;SDS011;49970;54.976;73.248;2023-05-07T00:08:31;78.28;;;24.92;;
63818;SDS011;49970;54.976;73.248;2023-05-07T00:10:57;80.47;;;25.35;;
63818;SDS011;49970;54.976;73.248;2023-05-07T00:13:24;81.95;;;26.40;;
63818;SDS011;49970;54.976;73.248;2023-05-07T00:15:50;82.15;;;26.42;;
63818;SDS011;49970;54.976;73.248;2023-05-07T00:18:16;77.18;;;25.08;;
63818;SDS011;49970;54.976;73.248;2023-05-07T00:20:46;66.97;;;23.63;;
63818;SDS011;49970;54.976;73.248;2023-05-07T00:23:12;81.72;;;25.52;;
63818;SDS011;49970;54.976;73.248;2023-05-07T00:25:38;98.15;;;25.75;;
63818;SDS011;49970;54.976;73.248;2023-05-07T00:28:05;67.18;;;24.83;;
63818;SDS011;49970;54.976;73.248;2023-05-07T00:30:31;78.32;;;25.98;;
63818;SDS011;49970;54.976;73.248;2023-05-07T00:32:58;82.20;;;26.35;;
63818;SDS011;49970;54.976;73.248;2023-05-07T00:35:24;118.50;;;26.92;;
63818;SDS011;49970;54.976;73.248;2023-05-07T00:37:51;89.50;;;27.63;;
63818;SDS011;49970;54.976;73.248;2023-05-07T00:40:17;88.72;;;28.55;;
63818;SDS011;49970;54.976;73.248;2023-05-07T00:42:43;79.85;;;27.98;;
63818;SDS011;49970;54.976;73.248;2023-05-07T00:45:13;97.43;;;27.85;;
63818;SDS011;49970;54.976;73.248;2023-05-07T00:47:40;88.68;;;27.85;;
63818;SDS011;49970;54.976;73.248;2023-05-07T00:50:06;91.50;;;28.90;;
63818;SDS011;49970;54.976;73.248;2023-05-07T00:52:34;84.22;;;27.13;;
63818;SDS011;49970;54.976;73.248;2023-05-07T00:55:02;99.63;;;29.70;;
63818;SDS011;49970;54.976;73.248;2023-05-07T00:57:37;98.82;;;28.88;;
63818;SDS011;49970;54.976;73.248;2023-05-07T01:00:06;93.20;;;27.85;;
63818;SDS011;49970;54.976;73.248;2023-05-07T01:02:37;94.53;;;27.13;;
63818;SDS011;49970;54.976;73.248;2023-05-07T01:05:05;85.10;;;28.05;;
63818;SDS011;49970;54.976;73.248;2023-05-07T01:07:34;83.10;;;26.13;;
63818;SDS011;49970;54.976;73.248;2023-05-07T01:10:06;89.75;;;25.33;;
63818;SDS011;49970;54.976;73.248;2023-05-07T01:12:34;82.53;;;24.52;;
63818;SDS011;49970;54.976;73.248;2023-05-07T01:15:01;72.63;;;25.45;;
63818;SDS011;49970;54.976;73.248;2023-05-07T01:17:28;80.95;;;23.15;;
63818;SDS011;49970;54.976;73.248;2023-05-07T01:19:55;69.65;;;20.95;;
63818;SDS011;49970;54.976;73.248;2023-05-07T01:22:29;56.10;;;19.50;;
63818;SDS011;49970;54.976;73.248;2023-05-07T01:24:59;63.72;;;19.50;;
63818;SDS011;49970;54.976;73.248;2023-05-07T01:27:28;72.63;;;20.05;;
63818;SDS011;49970;54.976;73.248;2023-05-07T01:29:55;70.30;;;19.48;;
63818;SDS011;49970;54.976;73.248;2023-05-07T01:32:26;60.17;;;17.55;;
63818;SDS011;49970;54.976;73.248;2023-05-07T01:34:57;61.00;;;17.40;;
63818;SDS011;49970;54.976;73.248;2023-05-07T01:37:26;58.95;;;16.85;;
63818;SDS011;49970;54.976;73.248;2023-05-07T01:39:52;52.80;;;16.33;;
63818;SDS011;49970;54.976;73.248;2023-05-07T01:42:19;48.88;;;14.63;;
63818;SDS011;49970;54.976;73.248;2023-05-07T01:44:46;60.13;;;16.05;;
63818;SDS011;49970;54.976;73.248;2023-05-07T01:47:12;57.60;;;14.90;;
63818;SDS011;49970;54.976;73.248;2023-05-07T01:49:40;54.22;;;15.15;;
63818;SDS011;49970;54.976;73.248;2023-05-07T01:52:09;65.78;;;15.05;;
63818;SDS011;49970;54.976;73.248;2023-05-07T01:54:37;65.85;;;14.02;;
63818;SDS011;49970;54.976;73.248;2023-05-07T01:57:04;51.63;;;12.95;;
63818;SDS011;49970;54.976;73.248;2023-05-07T01:59:30;44.22;;;13.35;;
63818;SDS011;49970;54.976;73.248;2023-05-07T02:01:57;56.60;;;13.18;;
63818;SDS011;49970;54.976;73.248;2023-05-07T02:04:23;50.92;;;11.68;;
63818;SDS011;49970;54.976;73.248;2023-05-07T02:06:51;62.53;;;10.75;;
63818;SDS011;49970;54.976;73.248;2023-05-07T02:09:19;58.47;;;9.88;;
63818;SDS011;49970;54.976;73.248;2023-05-07T02:11:48;47.63;;;10.65;;
63818;SDS011;49970;54.976;73.248;2023-05-07T02:14:16;43.78;;;11.18;;
63818;SDS011;49970;54.976;73.248;2023-05-07T02:16:42;48.30;;;10.23;;
63818;SDS011;49970;54.976;73.248;2023-05-07T02:19:11;45.95;;;10.25;;
63818;SDS011;49970;54.976;73.248;2023-05-07T02:21:37;53.60;;;10.30;;
63818;SDS011;49970;54.976;73.248;2023-05-07T02:24:04;44.38;;;9.80;;
63818;SDS011;49970;54.976;73.248;2023-05-07T02:26:30;49.40;;;9.65;;
63818;SDS011;49970;54.976;73.248;2023-05-07T02:28:56;48.97;;;8.70;;
63818;SDS011;49970;54.976;73.248;2023-05-07T02:31:23;25.33;;;8.23;;
63818;SDS011;49970;54.976;73.248;2023-05-07T02:33:49;38.80;;;8.88;;
63818;SDS011;49970;54.976;73.248;2023-05-07T02:36:15;51.45;;;8.25;;
63818;SDS011;49970;54.976;73.248;2023-05-07T02:38:53;31.33;;;6.55;;
63818;SDS011;49970;54.976;73.248;2023-05-07T02:41:20;39.33;;;7.43;;
63818;SDS011;49970;54.976;73.248;2023-05-07T02:43:46;28.98;;;7.75;;
63818;SDS011;49970;54.976;73.248;2023-05-07T02:46:13;45.50;;;7.40;;
63818;SDS011;49970;54.976;73.248;2023-05-07T02:48:44;49.72;;;7.38;;
63818;SDS011;49970;54.976;73.248;2023-05-07T02:51:10;34.25;;;6.78;;
63818;SDS011;49970;54.976;73.248;2023-05-07T02:53:39;37.65;;;6.97;;
63818;SDS011;49970;54.976;73.248;2023-05-07T02:56:06;26.17;;;6.35;;
63818;SDS011;49970;54.976;73.248;2023-05-07T02:58:32;27.88;;;6.65;;
63818;SDS011;49970;54.976;73.248;2023-05-07T03:02:48;36.67;;;7.38;;
63818;SDS011;49970;54.976;73.248;2023-05-07T03:06:40;27.25;;;7.10;;
63818;SDS011;49970;54.976;73.248;2023-05-07T03:10:31;40.75;;;8.23;;
63818;SDS011;49970;54.976;73.248;2023-05-07T03:14:47;34.85;;;8.18;;
63818;SDS011;49970;54.976;73.248;2023-05-07T03:18:39;38.88;;;7.30;;
63818;SDS011;49970;54.976;73.248;2023-05-07T03:22:29;30.55;;;8.23;;
63818;SDS011;49970;54.976;73.248;2023-05-07T03:26:44;44.33;;;8.25;;
63818;SDS011;49970;54.976;73.248;2023-05-07T03:30:39;35.90;;;7.55;;
63818;SDS011;49970;54.976;73.248;2023-05-07T03:34:30;51.63;;;8.48;;
63818;SDS011;49970;54.976;73.248;2023-05-07T03:38:48;40.35;;;5.25;;
63818;SDS011;49970;54.976;73.248;2023-05-07T03:42:38;34.80;;;5.28;;
63818;SDS011;49970;54.976;73.248;2023-05-07T03:46:31;32.67;;;5.95;;
63818;SDS011;49970;54.976;73.248;2023-05-07T03:50:36;46.80;;;4.38;;
63818;SDS011;49970;54.976;73.248;2023-05-07T03:53:02;32.85;;;4.18;;
63818;SDS011;49970;54.976;73.248;2023-05-07T03:55:30;24.35;;;4.68;;
63818;SDS011;49970;54.976;73.248;2023-05-07T03:57:59;25.65;;;3.40;;
63818;SDS011;49970;54.976;73.248;2023-05-07T04:00:27;35.55;;;3.85;;
63818;SDS011;49970;54.976;73.248;2023-05-07T04:02:57;33.78;;;4.70;;
63818;SDS011;49970;54.976;73.248;2023-05-07T04:06:27;12.30;;;3.47;;
63818;SDS011;49970;54.976;73.248;2023-05-07T04:08:58;20.08;;;3.72;;
63818;SDS011;49970;54.976;73.248;2023-05-07T04:11:26;25.90;;;3.30;;
63818;SDS011;49970;54.976;73.248;2023-05-07T04:13:53;28.48;;;3.22;;
63818;SDS011;49970;54.976;73.248;2023-05-07T04:16:22;38.97;;;2.33;;
63818;SDS011;49970;54.976;73.248;2023-05-07T04:18:49;9.40;;;2.65;;
63818;SDS011;49970;54.976;73.248;2023-05-07T04:21:17;23.52;;;2.60;;
63818;SDS011;49970;54.976;73.248;2023-05-07T04:23:48;11.15;;;3.28;;
63818;SDS011;49970;54.976;73.248;2023-05-07T04:26:15;35.58;;;10.65;;
63818;SDS011;49970;54.976;73.248;2023-05-07T04:28:43;19.95;;;2.13;;
63818;SDS011;49970;54.976;73.248;2023-05-07T04:31:10;18.17;;;2.08;;
63818;SDS011;49970;54.976;73.248;2023-05-07T04:33:38;27.08;;;1.98;;
63818;SDS011;49970;54.976;73.248;2023-05-07T04:36:07;19.13;;;2.00;;
63818;SDS011;49970;54.976;73.248;2023-05-07T04:38:39;27.67;;;1.98;;
63818;SDS011;49970;54.976;73.248;2023-05-07T04:41:06;30.88;;;2.05;;
63818;SDS011;49970;54.976;73.248;2023-05-07T04:43:39;11.63;;;1.90;;
63818;SDS011;49970;54.976;73.248;2023-05-07T04:47:54;21.98;;;2.05;;
63818;SDS011;49970;54.976;73.248;2023-05-07T04:51:28;22.02;;;1.85;;
63818;SDS011;49970;54.976;73.248;2023-05-07T04:53:55;17.05;;;1.58;;
63818;SDS011;49970;54.976;73.248;2023-05-07T04:56:22;10.57;;;1.50;;
63818;SDS011;49970;54.976;73.248;2023-05-07T04:58:48;15.48;;;2.30;;
63818;SDS011;49970;54.976;73.248;2023-05-07T05:01:17;22.10;;;1.65;;
63818;SDS011;49970;54.976;73.248;2023-05-07T05:03:43;17.17;;;1.80;;
63818;SDS011;49970;54.976;73.248;2023-05-07T05:06:10;15.07;;;1.75;;
63818;SDS011;49970;54.976;73.248;2023-05-07T05:08:36;8.77;;;1.85;;
63818;SDS011;49970;54.976;73.248;2023-05-07T05:11:03;14.90;;;1.40;;
63818;SDS011;49970;54.976;73.248;2023-05-07T05:13:32;39.10;;;2.85;;
63818;SDS011;49970;54.976;73.248;2023-05-07T05:16:01;26.88;;;1.75;;
63818;SDS011;49970;54.976;73.248;2023-05-07T05:18:29;14.55;;;1.40;;
63818;SDS011;49970;54.976;73.248;2023-05-07T05:20:55;36.88;;;2.40;;
63818;SDS011;49970;54.976;73.248;2023-05-07T05:23:23;14.82;;;1.52;;
63818;SDS011;49970;54.976;73.248;2023-05-07T05:25:49;7.57;;;1.48;;
63818;SDS011;49970;54.976;73.248;2023-05-07T05:28:16;10.00;;;1.58;;
63818;SDS011;49970;54.976;73.248;2023-05-07T05:30:42;19.75;;;1.40;;
63818;SDS011;49970;54.976;73.248;2023-05-07T05:33:08;17.52;;;1.50;;
63818;SDS011;49970;54.976;73.248;2023-05-07T05:35:35;10.38;;;2.10;;
63818;SDS011;49970;54.976;73.248;2023-05-07T05:38:03;3.53;;;1.10;;
63818;SDS011;49970;54.976;73.248;2023-05-07T05:40:31;10.55;;;1.55;;
63818;SDS011;49970;54.976;73.248;2023-05-07T05:43:00;16.23;;;1.30;;
63818;SDS011;49970;54.976;73.248;2023-05-07T05:45:27;14.15;;;1.13;;
63818;SDS011;49970;54.976;73.248;2023-05-07T05:47:53;15.13;;;1.45;;
63818;SDS011;49970;54.976;73.248;2023-05-07T05:50:22;18.75;;;2.17;;
63818;SDS011;49970;54.976;73.248;2023-05-07T05:54:14;8.55;;;2.00;;
63818;SDS011;49970;54.976;73.248;2023-05-07T05:58:05;14.25;;;2.17;;
63818;SDS011;49970;54.976;73.248;2023-05-07T06:01:58;19.05;;;1.92;;
63818;SDS011;49970;54.976;73.248;2023-05-07T06:05:48;25.20;;;1.92;;
63818;SDS011;49970;54.976;73.248;2023-05-07T06:09:39;9.35;;;1.52;;
63818;SDS011;49970;54.976;73.248;2023-05-07T06:12:40;36.47;;;2.85;;
63818;SDS011;49970;54.976;73.248;2023-05-07T06:16:31;8.27;;;1.48;;
63818;SDS011;49970;54.976;73.248;2023-05-07T06:20:21;26.00;;;1.73;;
63818;SDS011;49970;54.976;73.248;2023-05-07T06:24:11;28.23;;;1.52;;
63818;SDS011;49970;54.976;73.248;2023-05-07T06:28:27;19.05;;;1.90;;
63818;SDS011;49970;54.976;73.248;2023-05-07T06:32:20;19.50;;;1.48;;
63818;SDS011;49970;54.976;73.248;2023-05-07T06:36:11;13.40;;;1.27;;
63818;SDS011;49970;54.976;73.248;2023-05-07T06:40:27;16.45;;;2.63;;
63818;SDS011;49970;54.976;73.248;2023-05-07T06:42:55;8.90;;;1.40;;
63818;SDS011;49970;54.976;73.248;2023-05-07T06:45:29;5.43;;;1.42;;
63818;SDS011;49970;54.976;73.248;2023-05-07T06:47:57;40.42;;;2.65;;
63818;SDS011;49970;54.976;73.248;2023-05-07T06:50:24;8.98;;;1.02;;
63818;SDS011;49970;54.976;73.248;2023-05-07T06:52:55;12.75;;;1.35;;
63818;SDS011;49970;54.976;73.248;2023-05-07T06:55:21;10.32;;;1.35;;
63818;SDS011;49970;54.976;73.248;2023-05-07T06:57:48;27.63;;;1.55;;
63818;SDS011;49970;54.976;73.248;2023-05-07T07:00:15;7.20;;;1.50;;
63818;SDS011;49970;54.976;73.248;2023-05-07T07:02:48;20.10;;;1.50;;
63818;SDS011;49970;54.976;73.248;2023-05-07T07:05:16;11.13;;;1.27;;
63818;SDS011;49970;54.976;73.248;2023-05-07T07:07:43;17.00;;;1.73;;
63818;SDS011;49970;54.976;73.248;2023-05-07T07:10:09;10.88;;;1.48;;
63818;SDS011;49970;54.976;73.248;2023-05-07T07:12:36;9.18;;;1.10;;
63818;SDS011;49970;54.976;73.248;2023-05-07T07:15:02;18.35;;;1.85;;
63818;SDS011;49970;54.976;73.248;2023-05-07T07:17:29;14.77;;;2.30;;
63818;SDS011;49970;54.976;73.248;2023-05-07T07:19:55;10.80;;;1.40;;
63818;SDS011;49970;54.976;73.248;2023-05-07T07:22:22;9.40;;;1.50;;
63818;SDS011;49970;54.976;73.248;2023-05-07T07:24:48;5.82;;;1.10;;
63818;SDS011;49970;54.976;73.248;2023-05-07T07:27:17;19.92;;;1.48;;
63818;SDS011;49970;54.976;73.248;2023-05-07T07:29:43;21.27;;;5.20;;
63818;SDS011;49970;54.976;73.248;2023-05-07T07:32:10;27.40;;;1.40;;
63818;SDS011;49970;54.976;73.248;2023-05-07T07:34:37;8.57;;;0.98;;
63818;SDS011;49970;54.976;73.248;2023-05-07T07:37:04;20.17;;;1.00;;
63818;SDS011;49970;54.976;73.248;2023-05-07T07:39:32;7.70;;;1.08;;
63818;SDS011;49970;54.976;73.248;2023-05-07T07:41:59;21.83;;;1.30;;
63818;SDS011;49970;54.976;73.248;2023-05-07T07:44:28;15.60;;;1.30;;
63818;SDS011;49970;54.976;73.248;2023-05-07T07:46:58;10.45;;;1.17;;
63818;SDS011;49970;54.976;73.248;2023-05-07T07:49:26;19.85;;;1.30;;
63818;SDS011;49970;54.976;73.248;2023-05-07T07:51:54;9.73;;;1.38;;
63818;SDS011;49970;54.976;73.248;2023-05-07T07:54:22;12.82;;;1.23;;
63818;SDS011;49970;54.976;73.248;2023-05-07T07:56:48;11.57;;;0.98;;
63818;SDS011;49970;54.976;73.248;2023-05-07T07:59:14;16.63;;;1.20;;
63818;SDS011;49970;54.976;73.248;2023-05-07T08:01:44;7.38;;;1.15;;
63818;SDS011;49970;54.976;73.248;2023-05-07T08:04:11;10.98;;;1.27;;
63818;SDS011;49970;54.976;73.248;2023-05-07T08:06:40;12.68;;;1.80;;
63818;SDS011;49970;54.976;73.248;2023-05-07T08:09:08;36.28;;;2.13;;
63818;SDS011;49970;54.976;73.248;2023-05-07T08:11:35;15.55;;;2.45;;
63818;SDS011;49970;54.976;73.248;2023-05-07T08:14:02;22.90;;;3.17;;
63818;SDS011;49970;54.976;73.248;2023-05-07T08:16:29;11.30;;;1.65;;
63818;SDS011;49970;54.976;73.248;2023-05-07T08:18:55;11.63;;;1.35;;
63818;SDS011;49970;54.976;73.248;2023-05-07T08:21:22;10.43;;;1.95;;
63818;SDS011;49970;54.976;73.248;2023-05-07T08:23:50;14.95;;;1.45;;
63818;SDS011;49970;54.976;73.248;2023-05-07T08:26:32;11.65;;;1.48;;
63818;SDS011;49970;54.976;73.248;2023-05-07T08:28:59;12.02;;;1.40;;
63818;SDS011;49970;54.976;73.248;2023-05-07T08:31:25;16.25;;;1.60;;
63818;SDS011;49970;54.976;73.248;2023-05-07T08:33:51;32.22;;;2.28;;
63818;SDS011;49970;54.976;73.248;2023-05-07T08:36:18;18.65;;;1.50;;
63818;SDS011;49970;54.976;73.248;2023-05-07T08:38:45;14.52;;;1.25;;
63818;SDS011;49970;54.976;73.248;2023-05-07T08:41:12;43.33;;;2.75;;
63818;SDS011;49970;54.976;73.248;2023-05-07T08:43:40;38.58;;;3.05;;
63818;SDS011;49970;54.976;73.248;2023-05-07T08:46:09;7.57;;;1.20;;
63818;SDS011;49970;54.976;73.248;2023-05-07T08:48:42;12.85;;;1.20;;
63818;SDS011;49970;54.976;73.248;2023-05-07T08:51:15;16.38;;;1.05;;
63818;SDS011;49970;54.976;73.248;2023-05-07T08:53:42;9.40;;;1.42;;
63818;SDS011;49970;54.976;73.248;2023-05-07T08:56:12;14.43;;;1.23;;
63818;SDS011;49970;54.976;73.248;2023-05-07T08:58:44;44.35;;;3.13;;
63818;SDS011;49970;54.976;73.248;2023-05-07T09:01:14;5.45;;;1.10;;
63818;SDS011;49970;54.976;73.248;2023-05-07T09:03:44;33.03;;;1.40;;
63818;SDS011;49970;54.976;73.248;2023-05-07T09:06:13;131.80;;;5.15;;
63818;SDS011;49970;54.976;73.248;2023-05-07T09:08:44;19.58;;;1.25;;
63818;SDS011;49970;54.976;73.248;2023-05-07T09:11:19;3.97;;;1.02;;
63818;SDS011;49970;54.976;73.248;2023-05-07T09:13:47;12.30;;;2.15;;
63818;SDS011;49970;54.976;73.248;2023-05-07T09:16:14;18.58;;;1.00;;
63818;SDS011;49970;54.976;73.248;2023-05-07T09:18:52;19.80;;;1.85;;
63818;SDS011;49970;54.976;73.248;2023-05-07T09:21:19;25.17;;;1.98;;
63818;SDS011;49970;54.976;73.248;2023-05-07T09:23:53;7.63;;;1.25;;
63818;SDS011;49970;54.976;73.248;2023-05-07T09:26:24;8.63;;;1.52;;
63818;SDS011;49970;54.976;73.248;2023-05-07T09:28:51;4.55;;;1.45;;
63818;SDS011;49970;54.976;73.248;2023-05-07T09:31:19;4.72;;;1.25;;
63818;SDS011;49970;54.976;73.248;2023-05-07T09:33:49;6.60;;;2.75;;
63818;SDS011;49970;54.976;73.248;2023-05-07T09:36:16;65.28;;;3.13;;
63818;SDS011;49970;54.976;73.248;2023-05-07T09:38:44;11.68;;;1.52;;
63818;SDS011;49970;54.976;73.248;2023-05-07T09:41:12;19.08;;;1.10;;
63818;SDS011;49970;54.976;73.248;2023-05-07T09:43:58;41.05;;;1.65;;
63818;SDS011;49970;54.976;73.248;2023-05-07T09:46:31;24.08;;;1.70;;
63818;SDS011;49970;54.976;73.248;2023-05-07T09:49:07;20.65;;;1.40;;
63818;SDS011;49970;54.976;73.248;2023-05-07T09:51:45;73.90;;;3.20;;
63818;SDS011;49970;54.976;73.248;2023-05-07T09:54:16;15.07;;;1.50;;
63818;SDS011;49970;54.976;73.248;2023-05-07T09:56:47;7.57;;;1.23;;
63818;SDS011;49970;54.976;73.248;2023-05-07T09:59:16;13.57;;;1.17;;
63818;SDS011;49970;54.976;73.248;2023-05-07T10:01:44;27.27;;;2.10;;
63818;SDS011;49970;54.976;73.248;2023-05-07T10:04:12;19.88;;;1.40;;
63818;SDS011;49970;54.976;73.248;2023-05-07T10:06:42;28.65;;;2.33;;
63818;SDS011;49970;54.976;73.248;2023-05-07T10:09:09;18.90;;;1.48;;
63818;SDS011;49970;54.976;73.248;2023-05-07T10:11:37;47.92;;;3.53;;
63818;SDS011;49970;54.976;73.248;2023-05-07T10:14:04;40.50;;;2.65;;
63818;SDS011;49970;54.976;73.248;2023-05-07T10:16:34;15.70;;;1.20;;
63818;SDS011;49970;54.976;73.248;2023-05-07T10:19:05;172.90;;;10.05;;
63818;SDS011;49970;54.976;73.248;2023-05-07T10:21:35;40.90;;;2.42;;
63818;SDS011;49970;54.976;73.248;2023-05-07T10:24:04;25.00;;;2.55;;
63818;SDS011;49970;54.976;73.248;2023-05-07T10:26:51;22.13;;;1.83;;
63818;SDS011;49970;54.976;73.248;2023-05-07T10:31:55;19.88;;;1.52;;
63818;SDS011;49970;54.976;73.248;2023-05-07T10:34:43;24.58;;;2.00;;
63818;SDS011;49970;54.976;73.248;2023-05-07T10:37:13;16.70;;;2.50;;
63818;SDS011;49970;54.976;73.248;2023-05-07T10:39:40;22.45;;;1.95;;
63818;SDS011;49970;54.976;73.248;2023-05-07T10:42:11;40.10;;;1.80;;
63818;SDS011;49970;54.976;73.248;2023-05-07T10:44:43;16.67;;;1.80;;
63818;SDS011;49970;54.976;73.248;2023-05-07T10:47:16;40.67;;;3.15;;
63818;SDS011;49970;54.976;73.248;2023-05-07T10:52:24;9.93;;;1.85;;
63818;SDS011;49970;54.976;73.248;2023-05-07T11:00:48;50.50;;;3.50;;
63818;SDS011;49970;54.976;73.248;2023-05-07T11:03:27;15.95;;;3.03;;
63818;SDS011;49970;54.976;73.248;2023-05-07T11:06:12;12.50;;;2.28;;
63818;SDS011;49970;54.976;73.248;2023-05-07T11:11:43;7.95;;;1.77;;
63818;SDS011;49970;54.976;73.248;2023-05-07T11:17:30;23.33;;;2.95;;
63818;SDS011;49970;54.976;73.248;2023-05-07T11:20:03;29.20;;;3.13;;
63818;SDS011;49970;54.976;73.248;2023-05-07T11:22:47;8.15;;;2.65;;
63818;SDS011;49970;54.976;73.248;2023-05-07T11:25:20;62.58;;;5.55;;
63818;SDS011;49970;54.976;73.248;2023-05-07T11:27:51;27.33;;;3.53;;
63818;SDS011;49970;54.976;73.248;2023-05-07T11:30:19;44.80;;;3.60;;
63818;SDS011;49970;54.976;73.248;2023-05-07T11:32:47;41.38;;;3.80;;
63818;SDS011;49970;54.976;73.248;2023-05-07T11:35:15;14.05;;;2.60;;
63818;SDS011;49970;54.976;73.248;2023-05-07T11:37:44;13.07;;;2.50;;
63818;SDS011;49970;54.976;73.248;2023-05-07T11:40:12;16.75;;;2.80;;
63818;SDS011;49970;54.976;73.248;2023-05-07T11:42:40;20.10;;;2.70;;
63818;SDS011;49970;54.976;73.248;2023-05-07T11:45:09;25.13;;;3.78;;
63818;SDS011;49970;54.976;73.248;2023-05-07T11:47:36;38.13;;;3.30;;
63818;SDS011;49970;54.976;73.248;2023-05-07T11:50:06;16.33;;;2.97;;
63818;SDS011;49970;54.976;73.248;2023-05-07T11:52:34;35.05;;;3.40;;
63818;SDS011;49970;54.976;73.248;2023-05-07T11:56:25;21.05;;;3.20;;
63818;SDS011;49970;54.976;73.248;2023-05-07T12:00:15;31.20;;;4.05;;
63818;SDS011;49970;54.976;73.248;2023-05-07T12:04:08;21.02;;;2.85;;
63818;SDS011;49970;54.976;73.248;2023-05-07T12:08:00;26.60;;;3.80;;
63818;SDS011;49970;54.976;73.248;2023-05-07T12:11:51;30.67;;;3.15;;
63818;SDS011;49970;54.976;73.248;2023-05-07T12:15:42;17.90;;;2.70;;
63818;SDS011;49970;54.976;73.248;2023-05-07T12:19:31;40.90;;;3.72;;
63818;SDS011;49970;54.976;73.248;2023-05-07T12:23:22;28.80;;;3.30;;
63818;SDS011;49970;54.976;73.248;2023-05-07T12:27:14;17.98;;;2.72;;
63818;SDS011;49970;54.976;73.248;2023-05-07T12:31:03;20.25;;;3.67;;
63818;SDS011;49970;54.976;73.248;2023-05-07T12:35:26;32.17;;;3.72;;
63818;SDS011;49970;54.976;73.248;2023-05-07T12:39:10;38.83;;;3.47;;
63818;SDS011;49970;54.976;73.248;2023-05-07T12:42:59;33.95;;;3.35;;
63818;SDS011;49970;54.976;73.248;2023-05-07T12:46:58;30.05;;;3.38;;
63818;SDS011;49970;54.976;73.248;2023-05-07T12:50:51;17.50;;;3.08;;
63818;SDS011;49970;54.976;73.248;2023-05-07T12:54:41;15.55;;;3.90;;
63818;SDS011;49970;54.976;73.248;2023-05-07T12:58:59;30.65;;;3.75;;
63818;SDS011;49970;54.976;73.248;2023-05-07T13:02:51;36.70;;;3.63;;
63818;SDS011;49970;54.976;73.248;2023-05-07T13:06:41;23.67;;;3.30;;
63818;SDS011;49970;54.976;73.248;2023-05-07T13:10:33;16.58;;;3.70;;
63818;SDS011;49970;54.976;73.248;2023-05-07T13:14:24;36.20;;;5.22;;
63818;SDS011;49970;54.976;73.248;2023-05-07T13:18:40;26.08;;;5.20;;
63818;SDS011;49970;54.976;73.248;2023-05-07T13:22:31;33.83;;;5.15;;
63818;SDS011;49970;54.976;73.248;2023-05-07T13:26:21;33.45;;;4.25;;
63818;SDS011;49970;54.976;73.248;2023-05-07T13:30:37;37.13;;;4.10;;
63818;SDS011;49970;54.976;73.248;2023-05-07T13:34:28;30.80;;;4.88;;
63818;SDS011;49970;54.976;73.248;2023-05-07T13:38:17;52.67;;;4.95;;
63818;SDS011;49970;54.976;73.248;2023-05-07T13:42:34;19.92;;;3.47;;
63818;SDS011;49970;54.976;73.248;2023-05-07T13:46:26;31.08;;;5.43;;
63818;SDS011;49970;54.976;73.248;2023-05-07T13:50:16;28.48;;;5.38;;
63818;SDS011;49970;54.976;73.248;2023-05-07T13:54:32;24.75;;;4.45;;
63818;SDS011;49970;54.976;73.248;2023-05-07T13:58:24;58.17;;;7.88;;
63818;SDS011;49970;54.976;73.248;2023-05-07T14:02:15;47.58;;;4.85;;
63818;SDS011;49970;54.976;73.248;2023-05-07T14:06:30;29.95;;;5.07;;
63818;SDS011;49970;54.976;73.248;2023-05-07T14:10:22;58.40;;;5.38;;
63818;SDS011;49970;54.976;73.248;2023-05-07T14:14:12;46.00;;;5.72;;
63818;SDS011;49970;54.976;73.248;2023-05-07T14:18:28;56.95;;;6.20;;
63818;SDS011;49970;54.976;73.248;2023-05-07T14:26:22;47.42;;;5.40;;
63818;SDS011;49970;54.976;73.248;2023-05-07T14:28:49;48.67;;;6.97;;
63818;SDS011;49970;54.976;73.248;2023-05-07T14:31:16;49.45;;;7.38;;
63818;SDS011;49970;54.976;73.248;2023-05-07T14:33:42;65.45;;;7.35;;
63818;SDS011;49970;54.976;73.248;2023-05-07T14:36:08;58.50;;;8.07;;
63818;SDS011;49970;54.976;73.248;2023-05-07T14:38:35;137.32;;;12.15;;
63818;SDS011;49970;54.976;73.248;2023-05-07T14:41:01;106.88;;;9.02;;
63818;SDS011;49970;54.976;73.248;2023-05-07T14:43:27;65.53;;;9.93;;
63818;SDS011;49970;54.976;73.248;2023-05-07T14:45:54;58.65;;;12.13;;
63818;SDS011;49970;54.976;73.248;2023-05-07T14:48:20;54.90;;;12.27;;
63818;SDS011;49970;54.976;73.248;2023-05-07T14:50:47;69.88;;;21.05;;
63818;SDS011;49970;54.976;73.248;2023-05-07T14:53:13;66.95;;;20.63;;
63818;SDS011;49970;54.976;73.248;2023-05-07T14:55:40;129.75;;;40.65;;
63818;SDS011;49970;54.976;73.248;2023-05-07T14:58:06;121.97;;;44.30;;
63818;SDS011;49970;54.976;73.248;2023-05-07T15:00:33;133.50;;;41.22;;
63818;SDS011;49970;54.976;73.248;2023-05-07T15:03:06;56.75;;;13.85;;
63818;SDS011;49970;54.976;73.248;2023-05-07T15:05:36;136.82;;;39.47;;
63818;SDS011;49970;54.976;73.248;2023-05-07T15:08:02;125.78;;;38.67;;
63818;SDS011;49970;54.976;73.248;2023-05-07T15:10:28;111.30;;;33.60;;
63818;SDS011;49970;54.976;73.248;2023-05-07T15:12:55;71.68;;;14.25;;
63818;SDS011;49970;54.976;73.248;2023-05-07T15:15:21;59.10;;;17.42;;
63818;SDS011;49970;54.976;73.248;2023-05-07T15:17:47;155.38;;;50.20;;
63818;SDS011;49970;54.976;73.248;2023-05-07T15:20:14;128.95;;;35.42;;
63818;SDS011;49970;54.976;73.248;2023-05-07T15:22:40;170.63;;;43.05;;
63818;SDS011;49970;54.976;73.248;2023-05-07T15:25:07;132.70;;;27.95;;
63818;SDS011;49970;54.976;73.248;2023-05-07T15:27:33;85.30;;;15.32;;
63818;SDS011;49970;54.976;73.248;2023-05-07T15:30:00;84.93;;;20.52;;
63818;SDS011;49970;54.976;73.248;2023-05-07T15:32:26;122.15;;;19.30;;
63818;SDS011;49970;54.976;73.248;2023-05-07T15:34:52;126.55;;;26.30;;
63818;SDS011;49970;54.976;73.248;2023-05-07T15:37:18;88.90;;;17.50;;
63818;SDS011;49970;54.976;73.248;2023-05-07T15:39:45;82.78;;;16.15;;
63818;SDS011;49970;54.976;73.248;2023-05-07T15:42:11;116.88;;;24.05;;
63818;SDS011;49970;54.976;73.248;2023-05-07T15:44:37;76.97;;;18.00;;
63818;SDS011;49970;54.976;73.248;2023-05-07T15:47:05;77.53;;;17.63;;
63818;SDS011;49970;54.976;73.248;2023-05-07T15:49:31;60.17;;;17.45;;
63818;SDS011;49970;54.976;73.248;2023-05-07T15:51:58;85.00;;;21.30;;
63818;SDS011;49970;54.976;73.248;2023-05-07T15:54:24;115.13;;;22.65;;
63818;SDS011;49970;54.976;73.248;2023-05-07T15:56:50;63.53;;;16.17;;
63818;SDS011;49970;54.976;73.248;2023-05-07T15:59:17;70.63;;;16.50;;
63818;SDS011;49970;54.976;73.248;2023-05-07T16:01:43;68.03;;;17.48;;
63818;SDS011;49970;54.976;73.248;2023-05-07T16:04:10;75.00;;;16.15;;
63818;SDS011;49970;54.976;73.248;2023-05-07T16:06:37;67.32;;;15.90;;
63818;SDS011;49970;54.976;73.248;2023-05-07T16:09:03;78.32;;;14.30;;
63818;SDS011;49970;54.976;73.248;2023-05-07T16:11:30;64.32;;;12.43;;
63818;SDS011;49970;54.976;73.248;2023-05-07T16:13:58;81.68;;;11.57;;
63818;SDS011;49970;54.976;73.248;2023-05-07T16:16:26;59.08;;;13.05;;
63818;SDS011;49970;54.976;73.248;2023-05-07T16:18:54;62.58;;;12.57;;
63818;SDS011;49970;54.976;73.248;2023-05-07T16:21:21;52.70;;;13.15;;
63818;SDS011;49970;54.976;73.248;2023-05-07T16:23:48;50.72;;;13.18;;